Time;durP1;ratioP1;P1;durP2;ratioP2;P2;SDS_P1;SDS_P2;PMS_P1;PMS_P2;Temp;Humidity;BMP_temperature;BMP_pressure;BME280_temperature;BME280_humidity;BME280_pressure;Samples;Min_cycle;Max_cycle;Signal;HPM_P1;HPM_P2
2022/07/26 00:01:25;;;;;;;6.57;1.77;;;19.80;99.90;;;;;;4353678;28;9999931;-79
2022/07/26 00:03:51;;;;;;;3.45;1.80;;;19.80;99.90;;;;;;5053644;28;20283;-79
2022/07/26 00:06:17;;;;;;;3.92;1.52;;;19.80;99.90;;;;;;5073176;28;20051;-79
2022/07/26 00:08:43;;;;;;;3.78;2.10;;;19.80;99.90;;;;;;5057462;28;20041;-79
2022/07/26 00:11:09;;;;;;;4.82;2.00;;;19.90;99.90;;;;;;5067446;28;20028;-79
2022/07/26 00:13:34;;;;;;;3.38;1.73;;;19.90;99.90;;;;;;5063264;28;20024;-79
2022/07/26 00:16:00;;;;;;;5.50;1.77;;;19.90;99.90;;;;;;5085540;28;20069;-79
2022/07/26 00:18:26;;;;;;;5.88;2.17;;;19.90;99.90;;;;;;5069142;28;20472;-79
2022/07/26 00:20:52;;;;;;;4.25;1.98;;;19.90;99.90;;;;;;5062432;28;20028;-79
2022/07/26 00:23:18;;;;;;;2.55;1.73;;;19.90;99.90;;;;;;5067066;28;20021;-79
2022/07/26 00:25:44;;;;;;;5.10;2.00;;;19.90;99.90;;;;;;5057817;28;20500;-79
2022/07/26 00:28:10;;;;;;;4.85;2.15;;;19.90;99.90;;;;;;5051926;28;20025;-79
2022/07/26 00:30:36;;;;;;;4.82;2.05;;;19.90;99.90;;;;;;5051068;28;20063;-79
2022/07/26 00:33:01;;;;;;;4.45;1.80;;;19.90;99.90;;;;;;5069322;28;20058;-79
2022/07/26 00:35:27;;;;;;;3.88;1.85;;;19.90;99.90;;;;;;5062634;28;20521;-80
2022/07/26 00:37:52;;;;;;;4.43;2.00;;;19.90;99.90;;;;;;5052111;28;20041;-79
2022/07/26 00:40:18;;;;;;;6.32;2.05;;;19.80;99.90;;;;;;5079183;28;20028;-79
2022/07/26 00:42:45;;;;;;;5.88;2.28;;;19.80;99.90;;;;;;5058523;28;20075;-79
2022/07/26 00:45:12;;;;;;;5.15;2.00;;;19.80;99.90;;;;;;5067474;28;20113;-79
2022/07/26 00:47:37;;;;;;;8.30;2.25;;;19.80;99.90;;;;;;5067523;28;20482;-80
2022/07/26 00:50:10;;;;;;;7.78;2.00;;;19.70;99.90;;;;;;5054908;28;20032;-79
2022/07/26 00:52:35;;;;;;;3.92;1.88;;;19.80;99.90;;;;;;5059103;28;20485;-79
2022/07/26 00:55:01;;;;;;;3.78;1.80;;;19.80;99.90;;;;;;5051660;28;20044;-80
2022/07/26 00:57:27;;;;;;;4.90;1.98;;;19.80;99.90;;;;;;5054296;28;20554;-79
2022/07/26 00:59:53;;;;;;;3.50;1.95;;;19.80;99.90;;;;;;5055737;28;20108;-80
2022/07/26 01:02:19;;;;;;;5.90;2.00;;;19.70;99.90;;;;;;5060059;28;20420;-79
2022/07/26 01:04:45;;;;;;;7.57;1.90;;;19.70;99.90;;;;;;5063947;28;20064;-79
2022/07/26 01:07:12;;;;;;;3.90;1.45;;;19.70;99.90;;;;;;5054658;28;20071;-79
2022/07/26 01:09:38;;;;;;;6.70;1.90;;;19.70;99.90;;;;;;5057492;28;20059;-79
2022/07/26 01:12:04;;;;;;;3.78;1.60;;;19.70;99.90;;;;;;5062625;28;20063;-79
2022/07/26 01:14:29;;;;;;;5.63;1.67;;;19.70;99.90;;;;;;5066679;28;20055;-79
2022/07/26 01:16:55;;;;;;;4.70;1.60;;;19.70;99.90;;;;;;5058375;28;20507;-79
2022/07/26 01:19:21;;;;;;;4.15;1.60;;;19.70;99.90;;;;;;5048079;28;20024;-80
2022/07/26 01:21:48;;;;;;;6.13;1.70;;;19.70;99.90;;;;;;5058508;28;20033;-79
2022/07/26 01:24:14;;;;;;;4.00;1.70;;;19.70;99.90;;;;;;5063710;28;20073;-79
2022/07/26 01:26:40;;;;;;;6.05;1.70;;;19.70;99.90;;;;;;5061576;28;20044;-79
2022/07/26 01:29:05;;;;;;;6.78;1.70;;;19.70;99.90;;;;;;5054262;28;20036;-80
2022/07/26 01:31:31;;;;;;;5.35;1.63;;;19.70;99.90;;;;;;5059547;28;20032;-79
2022/07/26 01:33:57;;;;;;;6.03;1.55;;;19.70;99.90;;;;;;5066890;28;20964;-79
2022/07/26 01:36:23;;;;;;;4.30;1.55;;;19.70;99.90;;;;;;5075810;28;20118;-79
2022/07/26 01:38:48;;;;;;;2.92;1.40;;;19.70;99.90;;;;;;5060228;28;20064;-79
2022/07/26 01:41:15;;;;;;;4.30;1.23;;;19.70;99.90;;;;;;5065092;28;20035;-79
2022/07/26 01:43:41;;;;;;;3.95;1.50;;;19.70;99.90;;;;;;5084252;28;20050;-79
2022/07/26 01:46:07;;;;;;;5.05;1.35;;;19.70;99.90;;;;;;5060351;28;20476;-79
2022/07/26 01:48:33;;;;;;;2.97;1.10;;;19.70;99.90;;;;;;5067760;28;20063;-80
2022/07/26 01:50:59;;;;;;;4.15;1.30;;;19.70;99.90;;;;;;5062443;28;20425;-79
2022/07/26 01:53:25;;;;;;;4.32;1.23;;;19.70;99.90;;;;;;5056949;28;20021;-79
2022/07/26 01:55:50;;;;;;;6.38;1.13;;;19.70;99.90;;;;;;5060579;28;20138;-79
2022/07/26 01:58:16;;;;;;;4.57;1.45;;;19.60;99.90;;;;;;5062547;28;20055;-80
2022/07/26 02:00:42;;;;;;;4.38;1.30;;;19.60;99.90;;;;;;5076063;28;20024;-79
2022/07/26 02:03:08;;;;;;;7.15;1.33;;;19.70;99.90;;;;;;5061117;28;20388;-80
2022/07/26 02:05:33;;;;;;;5.88;1.27;;;19.60;99.90;;;;;;5048468;28;20033;-80
2022/07/26 02:07:59;;;;;;;6.53;1.17;;;19.60;99.90;;;;;;5057772;28;20024;-80
2022/07/26 02:10:59;;;;;;;4.18;1.02;;;19.60;99.90;;;;;;5054039;28;20473;-80
2022/07/26 02:13:12;;;;;;;5.40;1.20;;;19.60;99.90;;;;;;5059350;28;20481;-79
2022/07/26 02:15:38;;;;;;;3.05;1.15;;;19.60;99.90;;;;;;5071582;28;20117;-79
2022/07/26 02:18:04;;;;;;;2.45;0.98;;;19.60;99.90;;;;;;5073844;28;20166;-80
2022/07/26 02:20:32;;;;;;;2.33;1.10;;;19.60;99.80;;;;;;5063167;28;20116;-80
2022/07/26 02:22:59;;;;;;;5.82;0.95;;;19.60;99.80;;;;;;5051938;28;20035;-80
2022/07/26 02:25:24;;;;;;;3.20;1.00;;;19.60;99.70;;;;;;5064213;28;20016;-79
2022/07/26 02:27:50;;;;;;;9.43;1.00;;;19.60;99.60;;;;;;5055786;28;20432;-79
2022/07/26 02:30:16;;;;;;;4.10;1.20;;;19.60;99.70;;;;;;5053217;28;20053;-79
2022/07/26 02:32:42;;;;;;;5.93;1.02;;;19.60;99.90;;;;;;5049085;28;20660;-79
2022/07/26 02:35:09;;;;;;;2.03;1.00;;;19.60;99.70;;;;;;5054675;28;20067;-79
2022/07/26 02:37:34;;;;;;;6.63;1.00;;;19.60;99.80;;;;;;5049687;28;20048;-79
2022/07/26 02:40:01;;;;;;;2.13;0.80;;;19.60;99.80;;;;;;5059090;28;20037;-79
2022/07/26 02:42:27;;;;;;;7.28;0.98;;;19.50;99.90;;;;;;5068757;28;20058;-79
2022/07/26 02:44:53;;;;;;;2.92;1.10;;;19.50;99.90;;;;;;5071483;28;20040;-79
2022/07/26 02:47:18;;;;;;;5.55;1.05;;;19.50;99.90;;;;;;5064830;28;20035;-79
2022/07/26 02:49:44;;;;;;;2.53;0.90;;;19.40;99.90;;;;;;5053001;28;20037;-79
2022/07/26 02:52:10;;;;;;;2.08;1.00;;;19.40;99.90;;;;;;5072940;28;20028;-79
2022/07/26 02:54:36;;;;;;;1.45;0.90;;;19.40;99.90;;;;;;5057944;28;20044;-79
2022/07/26 02:57:01;;;;;;;4.00;0.90;;;19.40;99.90;;;;;;5051370;28;20087;-79
2022/07/26 02:59:27;;;;;;;3.47;0.90;;;19.30;99.90;;;;;;5060179;28;20563;-79
2022/07/26 03:01:52;;;;;;;4.10;1.02;;;19.30;99.90;;;;;;5058294;28;20102;-79
2022/07/26 03:04:19;;;;;;;3.22;1.10;;;19.30;99.90;;;;;;5060856;28;20032;-79
2022/07/26 03:06:44;;;;;;;2.05;0.90;;;19.30;99.90;;;;;;5053808;28;20052;-80
2022/07/26 03:09:10;;;;;;;2.72;0.90;;;19.20;99.90;;;;;;5083200;28;20068;-79
2022/07/26 03:11:36;;;;;;;5.53;1.17;;;19.20;99.90;;;;;;5055785;28;20027;-79
2022/07/26 03:14:01;;;;;;;3.10;1.00;;;19.20;99.90;;;;;;5057844;28;20029;-79
2022/07/26 03:16:27;;;;;;;1.98;0.70;;;19.20;99.90;;;;;;5069054;28;20629;-79
2022/07/26 03:18:53;;;;;;;2.38;1.00;;;19.20;99.90;;;;;;5077935;28;20066;-80
2022/07/26 03:21:18;;;;;;;1.70;1.00;;;19.10;99.90;;;;;;5067545;28;20039;-80
2022/07/26 03:23:44;;;;;;;2.53;1.00;;;19.20;99.90;;;;;;5066957;28;20029;-79
2022/07/26 03:26:10;;;;;;;4.28;1.08;;;19.20;99.90;;;;;;5083445;28;20035;-79
2022/07/26 03:28:35;;;;;;;3.53;1.15;;;19.10;99.90;;;;;;5054380;28;20062;-79
2022/07/26 03:31:01;;;;;;;1.52;0.88;;;19.10;99.90;;;;;;5058801;28;20029;-80
2022/07/26 03:33:28;;;;;;;2.08;0.88;;;19.00;99.90;;;;;;5067918;28;20043;-79
2022/07/26 03:35:53;;;;;;;1.77;0.77;;;19.00;99.90;;;;;;5077043;28;20032;-79
2022/07/26 03:38:19;;;;;;;3.05;0.93;;;19.00;99.90;;;;;;5059514;28;20060;-80
2022/07/26 03:40:44;;;;;;;1.40;0.90;;;19.00;99.90;;;;;;5071840;28;20029;-80
2022/07/26 03:43:10;;;;;;;3.60;1.00;;;18.90;99.90;;;;;;5055884;28;20085;-80
2022/07/26 03:45:36;;;;;;;1.95;0.80;;;18.90;99.90;;;;;;5053364;28;20025;-80
2022/07/26 03:48:01;;;;;;;2.47;0.90;;;18.90;99.90;;;;;;5059105;28;20112;-80
2022/07/26 03:50:27;;;;;;;2.75;0.90;;;18.80;99.90;;;;;;5062943;28;20388;-79
2022/07/26 03:52:52;;;;;;;1.60;0.85;;;18.80;99.90;;;;;;5062443;28;20124;-79
2022/07/26 03:58:02;;;;;;;4.97;1.30;;;18.90;99.90;;;;;;5063587;28;20035;-79
2022/07/26 04:00:28;;;;;;;5.38;0.90;;;18.90;99.90;;;;;;5051086;28;20029;-79
2022/07/26 04:02:54;;;;;;;1.42;0.93;;;18.90;99.90;;;;;;5054704;28;20025;-80
2022/07/26 04:05:19;;;;;;;3.08;0.80;;;19.00;99.90;;;;;;5057076;28;20064;-79
2022/07/26 04:07:45;;;;;;;4.68;1.23;;;18.90;99.90;;;;;;5088744;28;20028;-80
2022/07/26 04:10:12;;;;;;;6.40;1.30;;;19.00;99.90;;;;;;5065201;28;20035;-80
2022/07/26 04:12:38;;;;;;;4.13;1.17;;;19.00;99.90;;;;;;5072165;28;20032;-79
2022/07/26 04:15:05;;;;;;;5.60;0.93;;;19.00;99.90;;;;;;5064498;28;20029;-79
2022/07/26 04:17:41;;;;;;;2.97;1.25;;;19.00;99.90;;;;;;5063848;28;20052;-80
2022/07/26 04:20:09;;;;;;;2.70;1.00;;;19.00;99.90;;;;;;5065392;28;20029;-80
2022/07/26 04:22:36;;;;;;;3.35;0.90;;;18.90;99.90;;;;;;5061880;28;20027;-80
2022/07/26 04:25:01;;;;;;;2.78;1.10;;;19.00;99.90;;;;;;5075738;28;20040;-80
2022/07/26 04:27:27;;;;;;;2.88;1.05;;;19.00;99.90;;;;;;5059919;28;20029;-80
2022/07/26 04:29:53;;;;;;;4.45;1.30;;;19.00;99.90;;;;;;5059983;28;20040;-80
2022/07/26 04:32:18;;;;;;;3.03;1.20;;;19.00;99.90;;;;;;5054130;28;20611;-80
2022/07/26 04:34:44;;;;;;;5.43;1.08;;;19.00;99.90;;;;;;5063812;28;20028;-80
2022/07/26 04:37:10;;;;;;;4.13;1.00;;;19.00;99.90;;;;;;5057153;28;20308;-80
2022/07/26 04:39:35;;;;;;;4.80;1.00;;;19.00;99.90;;;;;;5049903;28;20090;-80
2022/07/26 04:42:01;;;;;;;2.42;0.93;;;19.00;99.90;;;;;;5052086;28;20052;-80
2022/07/26 04:44:26;;;;;;;3.10;1.10;;;19.00;99.90;;;;;;5057764;28;20499;-80
2022/07/26 04:46:52;;;;;;;3.95;1.05;;;19.00;99.90;;;;;;5055708;28;20017;-80
2022/07/26 04:49:17;;;;;;;1.70;1.00;;;19.00;99.90;;;;;;5049807;28;20560;-80
2022/07/26 04:51:43;;;;;;;4.28;1.25;;;19.00;99.90;;;;;;5054856;28;20024;-80
2022/07/26 04:54:08;;;;;;;4.20;1.10;;;19.00;99.90;;;;;;5053842;28;20033;-80
2022/07/26 04:56:34;;;;;;;4.07;1.25;;;19.00;99.90;;;;;;5066725;28;20388;-79
2022/07/26 04:59:00;;;;;;;3.08;0.95;;;19.10;99.90;;;;;;5050430;28;20024;-79
2022/07/26 05:01:25;;;;;;;3.40;1.15;;;19.30;99.90;;;;;;5065387;28;20119;-79
2022/07/26 05:03:51;;;;;;;2.00;1.02;;;19.40;99.90;;;;;;5053300;28;20094;-79
2022/07/26 05:06:16;;;;;;;3.28;1.00;;;19.60;99.90;;;;;;5059986;28;20025;-79
2022/07/26 05:08:42;;;;;;;2.63;0.90;;;19.70;99.90;;;;;;5055184;28;20501;-79
2022/07/26 05:11:09;;;;;;;6.35;1.23;;;19.90;99.90;;;;;;5068000;28;20119;-80
2022/07/26 05:13:35;;;;;;;3.78;0.93;;;20.10;99.90;;;;;;5057586;28;20029;-79
2022/07/26 05:16:00;;;;;;;2.20;0.90;;;20.20;99.90;;;;;;5047831;28;20097;-79
2022/07/26 05:18:28;;;;;;;3.80;1.15;;;20.30;99.90;;;;;;5052537;28;20025;-79
2022/07/26 05:20:53;;;;;;;5.57;1.00;;;20.40;99.90;;;;;;5047796;28;20021;-80
2022/07/26 05:23:19;;;;;;;5.78;1.20;;;20.40;99.90;;;;;;5049437;28;20618;-80
2022/07/26 05:25:45;;;;;;;2.75;1.00;;;20.50;99.90;;;;;;5053349;28;20056;-83
2022/07/26 05:28:10;;;;;;;6.40;1.20;;;20.50;99.90;;;;;;5051470;28;20032;-83
2022/07/26 05:30:36;;;;;;;10.82;1.20;;;20.40;99.90;;;;;;5053653;28;20032;-81
2022/07/26 05:33:02;;;;;;;8.52;1.50;;;20.40;99.90;;;;;;5061116;28;20025;-80
2022/07/26 05:35:27;;;;;;;5.15;1.15;;;20.40;99.90;;;;;;5072286;28;20162;-80
2022/07/26 05:37:53;;;;;;;4.97;0.90;;;20.40;99.90;;;;;;5071047;28;20040;-81
2022/07/26 05:40:19;;;;;;;11.93;1.50;;;20.50;99.90;;;;;;5056337;28;20116;-79
2022/07/26 05:42:44;;;;;;;7.35;1.30;;;20.50;99.90;;;;;;5043088;28;20965;-79
2022/07/26 05:45:10;;;;;;;2.42;1.35;;;20.50;99.90;;;;;;5054460;28;20024;-77
2022/07/26 05:47:36;;;;;;;3.38;1.30;;;20.60;99.90;;;;;;5051442;28;20039;-76
2022/07/26 05:50:02;;;;;;;6.85;1.33;;;20.70;99.90;;;;;;5057569;28;20477;-76
2022/07/26 05:52:28;;;;;;;4.07;1.27;;;20.90;99.90;;;;;;5050098;28;20087;-77
2022/07/26 05:54:54;;;;;;;1.98;1.08;;;21.00;99.90;;;;;;5058586;28;20024;-76
2022/07/26 05:57:19;;;;;;;6.22;1.50;;;21.10;99.90;;;;;;5052388;28;20169;-79
2022/07/26 05:59:45;;;;;;;3.90;1.38;;;21.20;99.90;;;;;;5049366;28;20032;-77
2022/07/26 06:02:10;;;;;;;1.65;1.10;;;21.30;99.90;;;;;;5053839;28;20029;-78
2022/07/26 06:04:36;;;;;;;2.25;1.20;;;21.30;99.90;;;;;;5059745;28;20068;-80
2022/07/26 06:07:01;;;;;;;4.03;1.40;;;21.30;99.90;;;;;;5063195;28;20032;-81
2022/07/26 06:09:27;;;;;;;4.18;1.60;;;21.30;99.90;;;;;;5059755;28;20113;-83
2022/07/26 06:11:53;;;;;;;2.17;1.00;;;21.20;99.90;;;;;;5052908;28;20048;-80
2022/07/26 06:14:19;;;;;;;3.05;1.15;;;21.20;99.90;;;;;;5058928;28;20025;-79
2022/07/26 06:16:48;;;;;;;4.05;1.35;;;21.10;99.90;;;;;;5056994;28;20033;-79
2022/07/26 06:19:14;;;;;;;3.85;1.38;;;21.20;99.90;;;;;;5057400;28;20180;-79
2022/07/26 06:21:40;;;;;;;4.95;1.48;;;21.10;99.90;;;;;;5045479;28;20582;-79
2022/07/26 06:24:06;;;;;;;2.83;1.15;;;21.10;99.90;;;;;;5079881;28;20040;-81
2022/07/26 06:26:32;;;;;;;2.40;0.95;;;21.10;99.90;;;;;;5085232;28;20484;-81
2022/07/26 06:28:57;;;;;;;5.88;1.33;;;21.10;99.90;;;;;;5065319;28;20039;-81
2022/07/26 06:31:23;;;;;;;8.52;1.30;;;21.20;99.90;;;;;;5063642;28;20043;-83
2022/07/26 06:33:50;;;;;;;2.28;1.35;;;21.30;99.90;;;;;;5071789;28;20017;-83
2022/07/26 06:36:15;;;;;;;2.30;1.15;;;21.40;99.90;;;;;;5075838;28;20074;-83
2022/07/26 06:38:41;;;;;;;5.65;1.20;;;21.50;99.90;;;;;;5061548;28;20049;-83
2022/07/26 06:41:07;;;;;;;3.60;1.23;;;21.70;99.90;;;;;;5061061;28;20070;-78
2022/07/26 06:43:32;;;;;;;6.57;1.40;;;21.90;99.90;;;;;;5070223;28;20032;-78
2022/07/26 06:45:58;;;;;;;3.60;1.20;;;22.10;99.90;;;;;;5066984;28;20495;-76
2022/07/26 06:48:24;;;;;;;4.88;1.13;;;22.20;99.90;;;;;;5076724;28;20028;-76
2022/07/26 06:50:49;;;;;;;4.00;1.50;;;22.40;99.90;;;;;;5065490;28;20021;-76
2022/07/26 06:53:15;;;;;;;2.40;1.10;;;22.60;99.90;;;;;;5067928;28;20021;-76
2022/07/26 06:55:40;;;;;;;5.05;1.52;;;22.80;99.90;;;;;;5069751;28;20476;-75
2022/07/26 06:58:06;;;;;;;4.88;1.40;;;22.90;99.90;;;;;;5072277;28;20024;-75
2022/07/26 07:00:32;;;;;;;3.67;1.30;;;22.80;99.90;;;;;;5066203;28;20032;-76
2022/07/26 07:02:57;;;;;;;4.93;1.50;;;22.70;99.90;;;;;;5049333;28;20498;-75
2022/07/26 07:05:23;;;;;;;4.50;1.60;;;22.50;99.90;;;;;;5047749;28;20029;-75
2022/07/26 07:07:48;;;;;;;2.92;1.35;;;22.50;99.90;;;;;;5066848;28;20039;-85
2022/07/26 07:10:14;;;;;;;3.60;1.58;;;22.60;99.90;;;;;;5068731;28;20427;-86
2022/07/26 07:12:42;;;;;;;3.75;1.52;;;22.80;99.90;;;;;;5057897;28;20052;-85
2022/07/26 07:15:08;;;;;;;4.07;1.50;;;22.80;99.90;;;;;;5062453;28;20024;-85
2022/07/26 07:17:34;;;;;;;2.55;1.40;;;23.00;99.90;;;;;;5065239;28;20032;-85
2022/07/26 07:20:00;;;;;;;3.08;1.30;;;23.10;99.90;;;;;;5061236;28;20405;-85
2022/07/26 07:22:25;;;;;;;3.88;1.58;;;23.10;99.90;;;;;;5066574;28;20093;-85
2022/07/26 07:24:51;;;;;;;4.28;1.90;;;23.10;99.90;;;;;;5054591;28;20060;-85
2022/07/26 07:27:16;;;;;;;2.95;1.95;;;23.10;99.90;;;;;;5057701;28;20025;-85
2022/07/26 07:29:42;;;;;;;3.00;2.00;;;23.20;99.90;;;;;;5062181;28;20028;-85
2022/07/26 07:32:08;;;;;;;3.53;1.83;;;23.10;99.90;;;;;;5076784;28;20036;-86
2022/07/26 07:34:33;;;;;;;3.83;1.90;;;23.10;99.90;;;;;;5079989;28;20044;-85
2022/07/26 07:36:59;;;;;;;3.63;1.75;;;23.00;99.90;;;;;;5063508;28;21275;-86
2022/07/26 07:39:24;;;;;;;3.47;1.88;;;23.00;99.90;;;;;;5085961;28;20157;-85
2022/07/26 07:41:50;;;;;;;4.85;1.98;;;23.00;99.90;;;;;;5059504;28;20086;-86
2022/07/26 07:44:16;;;;;;;5.88;2.00;;;23.00;99.90;;;;;;5053310;28;20090;-86
2022/07/26 07:46:41;;;;;;;4.22;2.28;;;23.00;99.90;;;;;;5061111;28;20028;-85
2022/07/26 07:49:07;;;;;;;5.00;2.10;;;23.10;99.90;;;;;;5065224;28;20036;-85
2022/07/26 07:51:33;;;;;;;2.30;2.10;;;23.30;99.90;;;;;;5062358;28;20031;-85
2022/07/26 07:53:58;;;;;;;3.42;1.98;;;23.60;99.90;;;;;;5066010;28;20020;-85
2022/07/26 07:56:24;;;;;;;6.32;2.20;;;24.10;99.90;;;;;;5065882;28;20028;-86
2022/07/26 07:58:50;;;;;;;4.15;1.90;;;24.40;99.90;;;;;;5066771;28;20423;-86
2022/07/26 08:01:16;;;;;;;4.07;2.03;;;24.50;99.90;;;;;;5070736;28;20453;-85
2022/07/26 08:03:41;;;;;;;3.85;2.10;;;24.40;99.90;;;;;;5062056;28;20041;-85
2022/07/26 08:06:08;;;;;;;3.38;2.00;;;24.20;99.90;;;;;;5077835;28;20028;-85
2022/07/26 08:08:37;;;;;;;8.40;1.95;;;;;;;;;;5078001;28;20085;-86
2022/07/26 08:11:04;;;;;;;3.90;2.15;;;;;;;;;;5070778;28;20012;-85
2022/07/26 08:13:30;;;;;;;3.67;2.15;;;;;;;;;;5075669;28;20024;-86
2022/07/26 08:15:56;;;;;;;3.17;2.03;;;;;;;;;;5061547;28;20017;-86
2022/07/26 08:18:22;;;;;;;3.70;2.00;;;;;;;;;;5058833;28;20265;-86
2022/07/26 08:20:49;;;;;;;4.85;2.20;;;;;;;;;;5052614;28;20402;-86
2022/07/26 08:23:15;;;;;;;3.00;2.05;;;;;;;;;;5070254;28;20027;-85
2022/07/26 08:25:41;;;;;;;1.90;1.63;;;22.70;99.90;;;;;;5057638;28;20016;-85
2022/07/26 08:28:06;;;;;;;3.20;1.63;;;22.60;99.90;;;;;;5055653;28;20021;-86
2022/07/26 08:30:32;;;;;;;3.80;1.20;;;22.50;99.90;;;;;;5061796;28;20042;-85
2022/07/26 08:32:58;;;;;;;1.92;1.42;;;22.40;99.90;;;;;;4706284;28;10000577;-85
2022/07/26 08:35:24;;;;;;;2.78;1.50;;;22.30;99.90;;;;;;5045947;28;20409;-85
2022/07/26 08:37:50;;;;;;;1.60;1.50;;;22.20;99.90;;;;;;5051381;28;20049;-80
2022/07/26 08:40:15;;;;;;;4.05;1.67;;;22.10;99.90;;;;;;5053774;28;20115;-80
2022/07/26 08:42:48;;;;;;;2.10;1.90;;;22.10;99.90;;;;;;5069779;28;20042;-84
2022/07/26 08:45:19;;;;;;;;;;;22.00;99.90;;;;;;5046306;28;20107;-84
2022/07/26 08:47:45;;;;;;;3.03;2.20;;;21.80;99.90;;;;;;5055370;28;19912;-84
2022/07/26 08:50:11;;;;;;;4.15;2.55;;;;;;;;;;5049708;28;20113;-84
2022/07/26 08:52:40;;;;;;;5.15;2.40;;;;;;;;;;5061472;28;20020;-83
2022/07/26 08:55:06;;;;;;;3.92;3.35;;;;;;;;;;5066823;28;20472;-83
2022/07/26 08:57:32;;;;;;;4.38;3.70;;;;;;;;;;5077065;28;20031;-83
2022/07/26 09:00:18;;;;;;;4.30;3.90;;;;;;;;;;5074616;28;20036;-83
2022/07/26 09:02:45;;;;;;;5.75;4.03;;;21.50;97.80;;;;;;5048768;28;20033;-83
2022/07/26 09:05:11;;;;;;;6.82;3.50;;;21.50;98.00;;;;;;5061268;28;20032;-82
2022/07/26 09:07:40;;;;;;;3.78;3.00;;;21.50;98.40;;;;;;5061539;28;20046;-83
2022/07/26 09:10:08;;;;;;;10.20;3.55;;;21.60;98.20;;;;;;5066298;28;20389;-82
2022/07/26 09:12:35;;;;;;;4.00;3.65;;;21.60;97.90;;;;;;5067529;28;20032;-82
2022/07/26 09:15:03;;;;;;;3.30;3.00;;;21.70;97.70;;;;;;5067417;28;20043;-83
2022/07/26 09:17:40;;;;;;;3.17;2.75;;;21.70;97.90;;;;;;5066225;28;20402;-82
2022/07/26 09:20:24;;;;;;;5.22;3.15;;;21.80;97.90;;;;;;5058077;28;20025;-83
2022/07/26 09:23:02;;;;;;;3.28;2.95;;;21.90;97.90;;;;;;5065259;28;20043;-82
2022/07/26 09:25:32;;;;;;;2.97;2.60;;;22.00;97.60;;;;;;5051636;28;20033;-82
2022/07/26 09:27:58;;;;;;;5.40;2.78;;;22.20;96.90;;;;;;5054537;28;20389;-83
2022/07/26 09:30:24;;;;;;;5.65;2.78;;;22.20;96.70;;;;;;5043569;28;20025;-83
2022/07/26 09:33:05;;;;;;;2.78;2.55;;;22.30;96.60;;;;;;5044700;28;20055;-83
2022/07/26 09:35:33;;;;;;;4.43;3.03;;;22.40;96.50;;;;;;5047893;28;20709;-83
2022/07/26 09:37:59;;;;;;;3.15;2.50;;;22.40;96.30;;;;;;5045092;28;20052;-83
2022/07/26 09:40:34;;;;;;;5.32;2.70;;;22.50;96.40;;;;;;5050810;28;20330;-83
2022/07/26 09:43:05;;;;;;;5.47;2.80;;;22.60;96.60;;;;;;5061928;28;20545;-83
2022/07/26 09:45:34;;;;;;;3.03;2.67;;;22.60;96.20;;;;;;5049647;28;20520;-83
2022/07/26 09:48:01;;;;;;;3.58;2.90;;;22.70;96.90;;;;;;5050192;28;20044;-83
2022/07/26 09:50:30;;;;;;;3.35;2.88;;;23.20;96.40;;;;;;5042274;28;20108;-83
2022/07/26 09:53:12;;;;;;;3.17;2.75;;;23.50;95.70;;;;;;5044581;28;20570;-83
2022/07/26 09:55:44;;;;;;;6.27;2.63;;;23.80;94.70;;;;;;5059753;28;20024;-83
2022/07/26 09:58:14;;;;;;;3.97;2.60;;;24.00;94.90;;;;;;5061056;28;20125;-83
2022/07/26 10:00:41;;;;;;;2.97;2.40;;;24.10;94.10;;;;;;5069225;28;20041;-83
2022/07/26 10:03:07;;;;;;;2.97;2.50;;;24.10;93.80;;;;;;5062079;28;20032;-83
2022/07/26 10:05:33;;;;;;;2.80;2.50;;;24.10;93.20;;;;;;5071338;28;20051;-83
2022/07/26 10:07:59;;;;;;;4.95;2.42;;;24.10;92.90;;;;;;5069610;28;20051;-83
2022/07/26 10:10:29;;;;;;;2.83;2.60;;;24.00;93.00;;;;;;5046046;28;20049;-83
2022/07/26 10:12:56;;;;;;;5.53;2.75;;;23.70;93.30;;;;;;5049967;28;20017;-82
2022/07/26 10:15:41;;;;;;;4.25;2.50;;;23.60;92.90;;;;;;5057005;28;20040;-83
2022/07/26 10:18:30;;;;;;;3.42;2.40;;;23.50;93.70;;;;;;5062545;28;20025;-83
2022/07/26 10:20:56;;;;;;;3.17;2.22;;;23.50;93.40;;;;;;5071055;28;20062;-83
2022/07/26 10:23:37;;;;;;;2.63;2.30;;;23.50;93.60;;;;;;5073168;28;20111;-83
2022/07/26 10:26:04;;;;;;;3.80;2.50;;;23.40;93.30;;;;;;5066484;28;20120;-82
2022/07/26 10:28:32;;;;;;;3.63;2.40;;;23.40;93.50;;;;;;5064412;28;20032;-83
2022/07/26 10:31:20;;;;;;;4.03;2.20;;;23.60;93.20;;;;;;5051644;28;20277;-83
2022/07/26 10:33:50;;;;;;;3.55;2.00;;;23.80;92.80;;;;;;5064296;28;20498;-84
2022/07/26 10:36:49;;;;;;;2.72;2.25;;;24.10;91.30;;;;;;5045683;28;20047;-83
2022/07/26 10:39:21;;;;;;;2.75;2.30;;;24.40;91.10;;;;;;5054908;28;20063;-83
2022/07/26 10:42:00;;;;;;;3.42;2.13;;;24.80;90.50;;;;;;5062732;28;20089;-83
2022/07/26 10:44:28;;;;;;;3.13;2.20;;;25.10;89.60;;;;;;5045613;28;20115;-84
2022/07/26 10:47:07;;;;;;;2.97;2.38;;;25.50;88.50;;;;;;5056183;28;20115;-85
2022/07/26 10:49:37;;;;;;;5.60;2.17;;;25.60;86.90;;;;;;5053892;28;20038;-85
2022/07/26 10:52:11;;;;;;;2.30;2.10;;;25.60;85.60;;;;;;5073657;28;20039;-85
2022/07/26 10:54:54;;;;;;;;;;;25.60;86.00;;;;;;5064851;28;20067;-85
2022/07/26 10:57:20;;;;;;;;;;;25.90;86.70;;;;;;5067737;28;19909;-85
2022/07/26 10:59:46;;;;;;;4.50;2.20;;;26.30;85.10;;;;;;5065198;28;19916;-85
2022/07/26 11:02:26;;;;;;;3.20;2.03;;;26.30;83.00;;;;;;5044244;28;20032;-85
2022/07/26 11:05:11;;;;;;;2.47;2.28;;;26.20;82.10;;;;;;5060139;28;20048;-84
2022/07/26 11:07:46;;;;;;;3.08;2.22;;;26.10;82.20;;;;;;5052371;28;20025;-85
2022/07/26 11:10:12;;;;;;;5.00;2.70;;;26.00;81.10;;;;;;5052385;28;20033;-81
2022/07/26 11:12:38;;;;;;;5.18;2.47;;;25.90;80.40;;;;;;5047486;28;20093;-81
2022/07/26 11:15:17;;;;;;;3.78;2.80;;;25.70;80.50;;;;;;5053816;28;20021;-81
2022/07/26 11:17:42;;;;;;;5.47;2.85;;;25.50;79.30;;;;;;5043688;28;20472;-82
2022/07/26 11:20:09;;;;;;;3.35;2.63;;;25.40;80.50;;;;;;5063159;28;20041;-82
2022/07/26 11:22:35;;;;;;;4.72;2.90;;;25.00;80.60;;;;;;5060679;28;20028;-82
2022/07/26 11:25:01;;;;;;;7.40;2.65;;;24.90;81.80;;;;;;5052494;28;20089;-81
2022/07/26 11:27:26;;;;;;;4.80;2.97;;;24.90;81.90;;;;;;5059073;28;20040;-81
2022/07/26 11:29:53;;;;;;;4.75;3.08;;;24.80;79.80;;;;;;5045666;28;20071;-81
2022/07/26 11:32:23;;;;;;;3.25;2.60;;;24.90;79.80;;;;;;5065066;28;20048;-82
2022/07/26 11:35:03;;;;;;;6.57;3.05;;;25.00;80.00;;;;;;5066148;28;20495;-82
2022/07/26 11:37:29;;;;;;;5.53;2.60;;;25.10;79.20;;;;;;5065659;28;20049;-81
2022/07/26 11:39:54;;;;;;;2.72;2.47;;;25.20;77.50;;;;;;5052287;28;20039;-81
2022/07/26 11:42:20;;;;;;;6.85;2.65;;;25.20;77.50;;;;;;5070539;28;20039;-84
2022/07/26 11:44:48;;;;;;;4.90;2.53;;;25.30;77.70;;;;;;5073057;28;20110;-85
2022/07/26 11:47:20;;;;;;;4.25;2.60;;;25.40;77.60;;;;;;5062525;28;20028;-85
2022/07/26 11:49:47;;;;;;;3.90;2.28;;;25.70;77.10;;;;;;5075554;28;20101;-85
2022/07/26 11:52:13;;;;;;;2.78;2.42;;;26.00;75.90;;;;;;5059475;28;20119;-85
2022/07/26 11:54:44;;;;;;;2.60;2.30;;;26.00;73.60;;;;;;5049305;28;20032;-85
2022/07/26 11:57:11;;;;;;;2.58;2.30;;;26.10;75.00;;;;;;5051989;28;20029;-85
2022/07/26 11:59:38;;;;;;;2.65;2.05;;;26.30;75.70;;;;;;5057984;28;20094;-85
2022/07/26 12:02:06;;;;;;;2.55;1.60;;;26.40;73.30;;;;;;5064761;28;20071;-85
2022/07/26 12:04:37;;;;;;;2.63;1.50;;;26.50;69.70;;;;;;5062191;28;20040;-85
2022/07/26 12:07:09;;;;;;;1.50;1.40;;;26.60;67.00;;;;;;5054627;28;20028;-84
2022/07/26 12:09:45;;;;;;;3.22;1.80;;;26.60;68.10;;;;;;5065499;28;20063;-84
2022/07/26 12:12:21;;;;;;;3.08;1.85;;;26.70;68.50;;;;;;5058826;28;20025;-84
2022/07/26 12:14:58;;;;;;;2.70;2.00;;;26.80;67.80;;;;;;5061625;28;20484;-84
2022/07/26 12:17:23;;;;;;;1.80;1.70;;;27.00;66.30;;;;;;5049779;28;20072;-84
2022/07/26 12:19:49;;;;;;;2.50;1.95;;;27.20;67.40;;;;;;5048613;28;20064;-84
2022/07/26 12:22:17;;;;;;;3.05;1.90;;;27.20;66.20;;;;;;5064557;28;20048;-83
2022/07/26 12:24:57;;;;;;;2.45;1.40;;;27.10;65.00;;;;;;5058521;28;20094;-84
2022/07/26 12:27:31;;;;;;;2.25;1.88;;;26.80;64.80;;;;;;5061164;28;20259;-84
2022/07/26 12:30:00;;;;;;;2.60;1.95;;;26.60;65.30;;;;;;5049148;28;20029;-83
2022/07/26 12:32:36;;;;;;;3.15;2.15;;;26.40;75.40;;;;;;5054333;28;20025;-80
2022/07/26 12:35:06;;;;;;;4.43;2.05;;;26.10;75.70;;;;;;5069342;28;20182;-80
2022/07/26 12:37:33;;;;;;;3.58;2.15;;;26.30;76.50;;;;;;5061687;28;20425;-79
2022/07/26 12:40:11;;;;;;;3.30;2.15;;;26.60;76.30;;;;;;5058275;28;20291;-79
2022/07/26 12:42:37;;;;;;;3.15;2.38;;;26.80;77.00;;;;;;5052241;28;20024;-83
2022/07/26 12:45:06;;;;;;;3.28;2.05;;;26.90;76.50;;;;;;5064290;28;20048;-82
2022/07/26 12:47:32;;;;;;;4.53;2.55;;;26.70;78.10;;;;;;5055124;28;20434;-82
2022/07/26 12:49:57;;;;;;;7.03;2.75;;;26.30;70.30;;;;;;5056699;28;20096;-80
2022/07/26 12:52:23;;;;;;;10.30;2.97;;;25.80;74.60;;;;;;5058192;28;20033;-81
2022/07/26 12:54:50;;;;;;;5.65;3.10;;;25.50;76.30;;;;;;5057405;28;20029;-82